createdAt,value
2018-12-04T00:00:43.734Z,5.07
2018-12-04T00:03:13.126Z,5.87
2018-12-04T00:05:42.399Z,5.63
2018-12-04T00:08:11.601Z,5.93
2018-12-04T00:10:41.059Z,5.60
2018-12-04T00:13:10.225Z,5.40
2018-12-04T00:15:39.535Z,5.27
2018-12-04T00:18:08.729Z,5.30
2018-12-04T00:20:38.450Z,5.73
2018-12-04T00:23:07.847Z,5.63
2018-12-04T00:25:37.192Z,5.67
2018-12-04T00:28:06.644Z,5.23
2018-12-04T00:30:35.730Z,5.47
2018-12-04T00:33:04.963Z,5.27
2018-12-04T00:35:34.517Z,4.83
2018-12-04T00:38:03.756Z,5.97
2018-12-04T00:40:33.405Z,5.10
2018-12-04T00:43:02.530Z,5.50
2018-12-04T00:45:31.686Z,5.03
2018-12-04T00:48:00.809Z,5.60
2018-12-04T00:50:29.946Z,4.57
2018-12-04T00:52:59.069Z,4.93
2018-12-04T00:55:38.709Z,5.47
2018-12-04T00:58:08.063Z,4.37
2018-12-04T01:00:37.611Z,4.27
2018-12-04T01:03:06.737Z,4.07
2018-12-04T01:05:36.266Z,4.87
2018-12-04T01:08:05.413Z,4.13
2018-12-04T01:10:34.561Z,4.30
2018-12-04T01:13:03.970Z,4.00
2018-12-04T01:15:33.202Z,3.80
2018-12-04T01:18:02.521Z,3.93
2018-12-04T01:20:31.716Z,4.00
2018-12-04T01:23:01.388Z,3.90
2018-12-04T01:25:30.688Z,4.40
2018-12-04T01:28:00.166Z,3.20
2018-12-04T01:30:29.392Z,3.60
2018-12-04T01:32:59.305Z,3.57
2018-12-04T01:35:28.449Z,3.67
2018-12-04T01:37:57.641Z,3.90
2018-12-04T01:40:27.022Z,3.47
2018-12-04T01:42:56.186Z,3.63
2018-12-04T01:45:25.430Z,3.87
2018-12-04T01:47:55.012Z,4.13
2018-12-04T01:50:24.105Z,4.20
2018-12-04T01:52:53.246Z,3.90
2018-12-04T01:55:22.802Z,4.20
2018-12-04T01:57:52.260Z,3.97
2018-12-04T02:00:21.487Z,3.60
2018-12-04T02:02:50.965Z,4.00
2018-12-04T02:05:20.162Z,4.00
2018-12-04T02:07:49.349Z,3.57
2018-12-04T02:10:18.624Z,3.70
2018-12-04T02:12:48.156Z,3.70
2018-12-04T02:15:17.501Z,4.37
2018-12-04T02:17:46.697Z,3.90
2018-12-04T02:20:15.855Z,3.90
2018-12-04T02:22:45.029Z,3.17
2018-12-04T02:25:14.225Z,3.83
2018-12-04T02:27:43.812Z,3.80
2018-12-04T02:30:19.781Z,3.37
2018-12-04T02:32:48.899Z,2.93
2018-12-04T02:35:18.043Z,3.10
2018-12-04T02:37:47.499Z,3.53
2018-12-04T02:40:16.723Z,3.30
2018-12-04T02:42:46.141Z,3.37
2018-12-04T02:45:15.522Z,3.20
2018-12-04T02:47:44.776Z,3.50
2018-12-04T02:50:13.940Z,3.73
2018-12-04T02:52:43.364Z,3.63
2018-12-04T02:55:12.544Z,4.37
2018-12-04T02:57:41.847Z,4.17
2018-12-04T03:00:11.221Z,4.63
2018-12-04T03:02:40.951Z,4.10
2018-12-04T03:05:10.180Z,4.30
2018-12-04T03:07:39.556Z,3.90
2018-12-04T03:10:09.116Z,4.20
2018-12-04T03:12:38.723Z,3.10
2018-12-04T03:15:08.257Z,2.80
2018-12-04T03:17:37.728Z,2.30
2018-12-04T03:20:07.058Z,1.63
2018-12-04T03:22:37.541Z,1.30
2018-12-04T03:25:08.048Z,1.63
2018-12-04T03:27:37.200Z,1.90
2018-12-04T03:30:06.801Z,1.73
2018-12-04T03:32:36.215Z,1.47
2018-12-04T03:35:05.727Z,1.00
2018-12-04T03:37:34.857Z,1.00
2018-12-04T03:40:04.987Z,1.10
2018-12-04T03:42:34.238Z,1.10
2018-12-04T03:45:03.757Z,0.93
2018-12-04T03:47:32.967Z,1.00
2018-12-04T03:50:02.149Z,1.17
2018-12-04T03:52:31.309Z,1.13
2018-12-04T03:55:00.540Z,2.00
2018-12-04T03:57:29.666Z,1.20
2018-12-04T03:59:59.153Z,1.20
2018-12-04T04:02:28.445Z,0.90
2018-12-04T04:04:57.584Z,1.30
2018-12-04T04:07:27.446Z,1.30
2018-12-04T04:09:56.846Z,1.27
2018-12-04T04:12:26.248Z,2.73
2018-12-04T04:14:55.457Z,1.60
2018-12-04T04:17:24.856Z,1.63
2018-12-04T04:19:54.341Z,1.40
2018-12-04T04:22:23.886Z,1.10
2018-12-04T04:24:53.084Z,1.77
2018-12-04T04:27:22.388Z,1.23
2018-12-04T04:29:51.623Z,1.80
2018-12-04T04:32:20.804Z,1.10
2018-12-04T04:34:50.429Z,1.33
2018-12-04T04:37:19.584Z,1.70
2018-12-04T04:39:48.880Z,1.90
2018-12-04T04:42:18.099Z,1.87
2018-12-04T04:44:47.987Z,1.80
2018-12-04T04:47:17.604Z,1.67
2018-12-04T04:49:46.849Z,1.60
2018-12-04T04:52:16.239Z,1.20
2018-12-04T04:54:45.833Z,1.90
2018-12-04T04:57:15.245Z,1.67
2018-12-04T04:59:44.424Z,1.80
2018-12-04T05:02:13.691Z,1.50
2018-12-04T05:04:42.896Z,1.53
2018-12-04T05:07:12.077Z,1.63
2018-12-04T05:09:41.484Z,1.90
2018-12-04T05:12:10.615Z,1.40
2018-12-04T05:14:39.939Z,2.30
2018-12-04T05:17:09.094Z,1.93
2018-12-04T05:19:38.268Z,2.20
2018-12-04T05:22:07.692Z,1.53
2018-12-04T05:24:36.841Z,1.73
2018-12-04T05:27:06.094Z,2.03
2018-12-04T05:29:35.396Z,2.00
2018-12-04T05:32:04.607Z,1.90
2018-12-04T05:34:33.767Z,2.23
2018-12-04T05:37:03.198Z,2.67
2018-12-04T05:39:32.373Z,2.20
2018-12-04T05:42:01.505Z,2.07
2018-12-04T05:44:30.744Z,2.80
2018-12-04T05:46:59.964Z,2.97
2018-12-04T05:49:29.489Z,2.40
2018-12-04T05:51:59.086Z,2.00
2018-12-04T05:54:28.425Z,2.53
2018-12-04T05:56:57.619Z,3.03
2018-12-04T05:59:27.146Z,2.73
2018-12-04T06:01:56.797Z,2.70
2018-12-04T06:04:26.207Z,2.90
2018-12-04T06:06:55.336Z,4.03
2018-12-04T06:09:24.861Z,2.50
2018-12-04T06:11:54.038Z,2.67
2018-12-04T06:14:23.422Z,2.43
2018-12-04T06:16:52.557Z,3.20
2018-12-04T06:19:21.926Z,2.57
2018-12-04T06:21:51.071Z,2.77
2018-12-04T06:24:20.577Z,2.40
2018-12-04T06:26:49.759Z,2.77
2018-12-04T06:29:19.152Z,3.47
2018-12-04T06:31:48.811Z,3.00
2018-12-04T06:34:18.184Z,2.73
2018-12-04T06:36:47.370Z,2.73
2018-12-04T06:39:16.547Z,2.53
2018-12-04T06:41:45.787Z,2.77
2018-12-04T06:44:15.202Z,2.67
2018-12-04T06:46:44.436Z,2.80
2018-12-04T06:49:14.198Z,2.40
2018-12-04T06:51:43.548Z,2.90
2018-12-04T06:54:12.960Z,2.30
2018-12-04T06:56:42.300Z,2.07
2018-12-04T06:59:11.487Z,2.90
2018-12-04T07:01:40.984Z,3.67
2018-12-04T07:04:10.411Z,2.60
2018-12-04T07:06:39.651Z,2.43
2018-12-04T07:09:09.440Z,2.47
2018-12-04T07:11:38.613Z,2.93
2018-12-04T07:14:08.132Z,2.43
2018-12-04T07:16:37.419Z,1.93
2018-12-04T07:19:06.847Z,2.13
2018-12-04T07:21:36.045Z,2.93
2018-12-04T07:24:05.336Z,2.80
2018-12-04T07:26:35.116Z,3.20
2018-12-04T07:29:04.332Z,2.47
2018-12-04T07:31:33.849Z,2.53
2018-12-04T07:34:03.151Z,1.93
2018-12-04T07:36:32.380Z,2.27
2018-12-04T07:39:01.663Z,2.30
2018-12-04T07:41:31.165Z,2.50
2018-12-04T07:44:00.475Z,2.70
2018-12-04T07:46:30.074Z,2.97
2018-12-04T07:48:59.451Z,2.73
2018-12-04T07:51:28.774Z,2.83
2018-12-04T07:53:58.143Z,2.70
2018-12-04T07:56:27.272Z,2.83
2018-12-04T07:58:56.801Z,2.67
2018-12-04T08:01:26.562Z,2.07
2018-12-04T08:03:55.808Z,2.70
2018-12-04T08:06:25.336Z,3.40
2018-12-04T08:08:54.776Z,3.07
2018-12-04T08:11:24.126Z,2.83
2018-12-04T08:13:53.865Z,3.30
2018-12-04T08:16:23.529Z,2.87
2018-12-04T08:18:52.785Z,3.40
2018-12-04T08:21:22.002Z,2.90
2018-12-04T08:23:51.443Z,2.90
2018-12-04T08:26:20.693Z,2.37
2018-12-04T08:28:50.420Z,2.90
2018-12-04T08:31:19.802Z,2.70
2018-12-04T08:33:49.028Z,2.70
2018-12-04T08:36:18.228Z,3.37
2018-12-04T08:38:47.811Z,3.10
2018-12-04T08:41:16.977Z,2.30
2018-12-04T08:43:46.314Z,2.20
2018-12-04T08:46:15.794Z,2.53
2018-12-04T08:48:45.146Z,2.90
2018-12-04T08:51:14.760Z,2.37
2018-12-04T08:53:43.861Z,2.80
2018-12-04T08:56:13.243Z,2.60
2018-12-04T08:58:42.705Z,3.30
2018-12-04T09:01:11.792Z,2.67
2018-12-04T09:03:41.312Z,2.73
2018-12-04T09:06:12.200Z,3.43
2018-12-04T09:08:41.658Z,2.43
2018-12-04T09:11:11.079Z,2.13
2018-12-04T09:13:40.401Z,3.10
2018-12-04T09:16:09.937Z,3.00
2018-12-04T09:18:39.058Z,2.80
2018-12-04T09:21:08.284Z,3.00
2018-12-04T09:23:37.805Z,2.93
2018-12-04T09:26:07.155Z,2.50
2018-12-04T09:28:36.878Z,3.37
2018-12-04T09:31:06.617Z,2.67
2018-12-04T09:33:35.926Z,2.50
2018-12-04T09:36:05.256Z,3.20
2018-12-04T09:38:34.421Z,2.70
2018-12-04T09:41:03.685Z,3.10
2018-12-04T09:43:32.957Z,2.97
2018-12-04T09:46:02.136Z,2.60
2018-12-04T09:48:31.339Z,3.13
2018-12-04T09:51:00.593Z,2.73
2018-12-04T09:53:29.932Z,3.40
2018-12-04T09:55:59.106Z,2.80
2018-12-04T09:58:28.354Z,3.57
2018-12-04T10:00:57.540Z,3.23
2018-12-04T10:03:26.789Z,3.10
2018-12-04T10:05:56.257Z,3.07
2018-12-04T10:08:25.694Z,3.37
2018-12-04T10:10:54.890Z,2.30
2018-12-04T10:13:24.499Z,2.60
2018-12-04T10:15:53.868Z,2.93
2018-12-04T10:18:23.191Z,2.47
2018-12-04T10:21:04.127Z,2.80
2018-12-04T10:23:33.306Z,2.80
2018-12-04T10:26:02.468Z,2.50
2018-12-04T10:28:31.790Z,2.90
2018-12-04T10:31:12.079Z,2.60
2018-12-04T10:33:41.314Z,2.60
2018-12-04T10:36:10.565Z,2.20
2018-12-04T10:38:40.976Z,3.23
2018-12-04T10:41:10.668Z,2.47
2018-12-04T10:43:40.186Z,2.57
2018-12-04T10:46:10.603Z,2.50
2018-12-04T10:48:40.752Z,2.50
2018-12-04T10:51:10.019Z,3.00
2018-12-04T10:53:39.425Z,2.60
2018-12-04T10:56:08.840Z,2.70
2018-12-04T10:58:38.357Z,2.57
2018-12-04T11:01:13.098Z,2.90
2018-12-04T11:03:42.960Z,2.30
2018-12-04T11:06:12.311Z,3.10
2018-12-04T11:08:41.509Z,2.40
2018-12-04T11:11:10.886Z,2.03
2018-12-04T11:13:40.031Z,2.30
2018-12-04T11:16:09.308Z,2.83
2018-12-04T11:18:38.726Z,2.37
2018-12-04T11:21:08.073Z,2.27
2018-12-04T11:23:37.558Z,2.37
2018-12-04T11:26:07.028Z,2.80
2018-12-04T11:28:36.280Z,2.00
2018-12-04T11:31:05.870Z,2.77
2018-12-04T11:33:35.070Z,2.30
2018-12-04T11:36:04.281Z,3.40
2018-12-04T11:38:33.575Z,2.87
2018-12-04T11:41:02.971Z,2.07
2018-12-04T11:43:32.192Z,3.30
2018-12-04T11:46:01.660Z,2.07
2018-12-04T11:48:31.226Z,1.90
2018-12-04T11:51:00.957Z,2.10
2018-12-04T11:53:30.381Z,1.83
2018-12-04T11:55:59.621Z,2.60
2018-12-04T11:58:29.091Z,2.47
2018-12-04T12:00:58.408Z,3.13
2018-12-04T12:03:27.708Z,2.60
2018-12-04T12:05:57.496Z,2.27
2018-12-04T12:08:27.142Z,2.70
2018-12-04T12:10:56.868Z,2.23
2018-12-04T12:13:26.342Z,2.00
2018-12-04T12:15:55.502Z,3.20
2018-12-04T12:18:24.828Z,2.80
2018-12-04T12:20:54.174Z,2.90
2018-12-04T12:23:23.590Z,2.23
2018-12-04T12:25:52.773Z,2.50
2018-12-04T12:28:21.921Z,2.67
2018-12-04T12:30:51.415Z,2.90
2018-12-04T12:33:20.632Z,2.20
2018-12-04T12:35:50.404Z,2.73
2018-12-04T12:38:19.706Z,2.20
2018-12-04T12:40:48.903Z,2.37
2018-12-04T12:43:18.293Z,2.87
2018-12-04T12:45:47.550Z,2.07
2018-12-04T12:48:16.767Z,3.00
2018-12-04T12:50:46.319Z,2.30
2018-12-04T12:53:15.898Z,2.20
2018-12-04T12:55:45.100Z,2.70
2018-12-04T12:58:14.566Z,2.70
2018-12-04T13:00:44.033Z,2.97
2018-12-04T13:03:13.825Z,2.57
2018-12-04T13:05:43.046Z,2.93
2018-12-04T13:08:12.194Z,3.10
2018-12-04T13:10:41.427Z,2.90
2018-12-04T13:13:10.829Z,2.77
2018-12-04T13:15:40.016Z,3.00
2018-12-04T13:18:09.142Z,2.43
2018-12-04T13:20:38.476Z,3.07
2018-12-04T13:23:07.775Z,2.70
2018-12-04T13:25:37.133Z,3.03
2018-12-04T13:28:06.694Z,2.97
2018-12-04T13:30:36.083Z,2.53
2018-12-04T13:33:05.457Z,2.70
2018-12-04T13:35:34.777Z,2.73
2018-12-04T13:38:04.350Z,2.47
2018-12-04T13:40:33.572Z,2.20
2018-12-04T13:43:03.068Z,2.40
2018-12-04T13:45:32.431Z,2.70
2018-12-04T13:48:02.023Z,2.50
2018-12-04T13:50:31.552Z,2.07
2018-12-04T13:53:00.818Z,2.50
2018-12-04T13:55:30.254Z,1.60
2018-12-04T13:57:59.665Z,2.80
2018-12-04T14:00:28.960Z,2.17
2018-12-04T14:02:58.276Z,2.23
2018-12-04T14:05:28.067Z,2.00
2018-12-04T14:07:57.319Z,2.40
2018-12-04T14:10:26.669Z,2.73
2018-12-04T14:12:55.871Z,2.23
2018-12-04T14:15:25.589Z,1.70
2018-12-04T14:17:56.495Z,2.03
2018-12-04T14:20:25.753Z,2.43
2018-12-04T14:22:55.159Z,1.80
2018-12-04T14:25:24.661Z,2.00
2018-12-04T14:27:53.828Z,2.43
2018-12-04T14:30:23.310Z,2.80
2018-12-04T14:32:52.762Z,2.27
2018-12-04T14:35:22.031Z,2.73
2018-12-04T14:37:51.286Z,2.00
2018-12-04T14:40:20.408Z,2.20
2018-12-04T14:42:51.537Z,1.87
2018-12-04T14:45:20.910Z,2.40
2018-12-04T14:47:50.391Z,2.00
2018-12-04T14:50:20.196Z,2.57
2018-12-04T14:52:49.432Z,2.30
2018-12-04T14:55:18.612Z,2.57
2018-12-04T14:57:47.939Z,2.37
2018-12-04T15:00:17.282Z,2.23
2018-12-04T15:02:46.642Z,2.57
2018-12-04T15:05:16.073Z,2.27
2018-12-04T15:07:45.757Z,2.43
2018-12-04T15:10:15.074Z,2.87
2018-12-04T15:12:44.571Z,2.67
2018-12-04T15:15:13.957Z,2.50
2018-12-04T15:17:43.600Z,2.70
2018-12-04T15:20:12.856Z,2.30
2018-12-04T15:22:42.027Z,2.60
2018-12-04T15:25:11.160Z,2.43
2018-12-04T15:27:40.483Z,2.70
2018-12-04T15:30:10.008Z,2.43
2018-12-04T15:32:39.283Z,2.50
2018-12-04T15:35:08.806Z,2.87
2018-12-04T15:37:38.009Z,2.40
2018-12-04T15:40:08.485Z,3.40
2018-12-04T15:42:37.846Z,2.23
2018-12-04T15:45:07.795Z,3.50
2018-12-04T15:47:37.011Z,3.20
2018-12-04T15:50:08.096Z,2.77
2018-12-04T15:52:37.478Z,3.17
2018-12-04T15:55:06.958Z,2.70
2018-12-04T15:57:36.283Z,3.60
2018-12-04T16:00:09.174Z,2.70
2018-12-04T16:02:38.758Z,2.90
2018-12-04T16:05:10.083Z,3.27
2018-12-04T16:07:39.454Z,2.77
2018-12-04T16:10:12.570Z,2.80
2018-12-04T16:12:41.758Z,2.90
2018-12-04T16:15:10.974Z,3.23
2018-12-04T16:17:40.217Z,4.20
2018-12-04T16:20:09.571Z,3.73
2018-12-04T16:22:38.884Z,3.40
2018-12-04T16:25:09.559Z,2.80
2018-12-04T16:27:39.055Z,3.20
2018-12-04T16:30:10.235Z,3.33
2018-12-04T16:32:39.474Z,3.53
2018-12-04T16:35:09.676Z,3.20
2018-12-04T16:37:38.993Z,2.93
2018-12-04T16:40:09.150Z,2.90
2018-12-04T16:42:38.364Z,3.13
2018-12-04T16:45:08.994Z,2.80
2018-12-04T16:47:38.226Z,3.37
2018-12-04T16:50:07.729Z,3.63
2018-12-04T16:52:37.119Z,2.60
2018-12-04T16:55:07.273Z,3.40
2018-12-04T16:57:36.538Z,3.47
2018-12-04T17:00:08.485Z,3.93
2018-12-04T17:02:37.614Z,3.50
2018-12-04T17:05:07.150Z,2.43
2018-12-04T17:07:36.284Z,2.97
2018-12-04T17:10:07.445Z,2.53
2018-12-04T17:12:36.595Z,2.50
2018-12-04T17:15:06.927Z,3.70
2018-12-04T17:17:36.477Z,3.40
2018-12-04T17:20:06.975Z,2.87
2018-12-04T17:22:36.316Z,3.10
2018-12-04T17:25:05.910Z,3.00
2018-12-04T17:27:35.071Z,2.40
2018-12-04T17:30:04.772Z,2.50
2018-12-04T17:32:34.323Z,2.73
2018-12-04T17:36:06.701Z,3.90
2018-12-04T17:38:35.807Z,3.73
2018-12-04T17:41:05.039Z,2.97
2018-12-04T17:43:34.526Z,3.43
2018-12-04T17:46:03.715Z,2.80
2018-12-04T17:48:32.873Z,3.63
2018-12-04T17:51:02.493Z,3.10
2018-12-04T17:53:31.810Z,2.87
2018-12-04T17:56:00.986Z,2.77
2018-12-04T17:58:30.132Z,3.27
2018-12-04T18:00:59.837Z,3.50
2018-12-04T18:03:29.494Z,4.30
2018-12-04T18:05:58.962Z,3.50
2018-12-04T18:08:28.464Z,2.90
2018-12-04T18:10:57.743Z,2.90
2018-12-04T18:13:26.995Z,2.73
2018-12-04T18:15:56.288Z,2.93
2018-12-04T18:18:25.537Z,3.10
2018-12-04T18:20:55.141Z,3.43
2018-12-04T18:23:24.420Z,2.87
2018-12-04T18:25:53.556Z,2.93
2018-12-04T18:28:22.725Z,2.70
2018-12-04T18:30:51.969Z,3.50
2018-12-04T18:33:21.905Z,2.97
2018-12-04T18:35:51.479Z,2.47
2018-12-04T18:38:20.830Z,2.57
2018-12-04T18:40:49.929Z,3.03
2018-12-04T18:43:19.273Z,3.03
2018-12-04T18:45:48.351Z,3.27
2018-12-04T18:48:17.662Z,3.03
2018-12-04T18:50:47.018Z,3.60
2018-12-04T18:53:16.390Z,3.13
2018-12-04T18:55:45.756Z,3.30
2018-12-04T18:58:15.093Z,4.60
2018-12-04T19:00:44.194Z,3.90
2018-12-04T19:03:13.655Z,3.83
2018-12-04T19:05:43.445Z,3.67
2018-12-04T19:08:12.787Z,2.97
2018-12-04T19:10:42.020Z,3.87
2018-12-04T19:13:11.203Z,3.87
2018-12-04T19:15:40.325Z,3.93
2018-12-04T19:18:09.825Z,2.90
2018-12-04T19:20:39.294Z,3.17
2018-12-04T19:23:09.055Z,2.47
2018-12-04T19:25:38.382Z,3.07
2018-12-04T19:28:07.680Z,3.10
2018-12-04T19:30:37.354Z,3.57
2018-12-04T19:33:06.580Z,3.20
2018-12-04T19:35:35.831Z,3.27
2018-12-04T19:38:05.369Z,3.37
2018-12-04T19:40:34.597Z,3.17
2018-12-04T19:43:04.091Z,3.67
2018-12-04T19:45:33.522Z,3.13
2018-12-04T19:48:02.764Z,3.07
2018-12-04T19:50:32.533Z,3.10
2018-12-04T19:53:02.189Z,3.47
2018-12-04T19:55:31.672Z,3.30
2018-12-04T19:58:00.928Z,3.33
2018-12-04T20:00:30.151Z,3.20
2018-12-04T20:02:59.395Z,2.87
2018-12-04T20:05:28.632Z,3.57
2018-12-04T20:07:57.825Z,3.90
2018-12-04T20:10:26.997Z,3.57
2018-12-04T20:12:56.230Z,3.30
2018-12-04T20:15:25.889Z,4.03
2018-12-04T20:17:55.360Z,3.20
2018-12-04T20:20:24.562Z,3.10
2018-12-04T20:22:54.229Z,3.33
2018-12-04T20:25:23.426Z,3.33
2018-12-04T20:27:52.887Z,2.80
2018-12-04T20:30:22.905Z,3.30
2018-12-04T20:32:52.244Z,3.27
2018-12-04T20:35:21.496Z,2.90
2018-12-04T20:37:50.654Z,3.50
2018-12-04T20:40:20.187Z,3.63
2018-12-04T20:42:49.464Z,3.10
2018-12-04T20:45:18.855Z,4.03
2018-12-04T20:47:48.041Z,3.17
2018-12-04T20:50:17.545Z,3.30
2018-12-04T20:52:46.880Z,3.23
2018-12-04T20:55:16.092Z,3.43
2018-12-04T20:57:45.549Z,2.70
2018-12-04T21:00:14.694Z,3.40
2018-12-04T21:02:44.014Z,3.17
2018-12-04T21:05:13.320Z,3.50
2018-12-04T21:07:42.532Z,3.47
2018-12-04T21:10:11.973Z,4.27
2018-12-04T21:12:41.191Z,3.63
2018-12-04T21:15:10.384Z,3.20
2018-12-04T21:17:39.592Z,3.70
2018-12-04T21:20:08.994Z,3.03
2018-12-04T21:22:38.216Z,3.80
2018-12-04T21:25:07.482Z,2.80
2018-12-04T21:27:42.023Z,3.60
2018-12-04T21:30:16.872Z,3.63
2018-12-04T21:32:51.477Z,2.90
2018-12-04T21:35:26.011Z,3.90
2018-12-04T21:38:00.696Z,2.90
2018-12-04T21:40:35.562Z,3.23
2018-12-04T21:43:10.287Z,3.33
2018-12-04T21:45:45.147Z,4.03
2018-12-04T21:48:15.451Z,3.43
2018-12-04T21:50:44.623Z,3.10
2018-12-04T21:53:13.844Z,3.00
2018-12-04T21:55:43.246Z,3.30
2018-12-04T21:58:12.553Z,2.60
2018-12-04T22:00:42.371Z,2.70
2018-12-04T22:03:11.852Z,3.70
2018-12-04T22:05:41.569Z,2.77
2018-12-04T22:08:11.164Z,3.53
2018-12-04T22:10:40.357Z,3.07
2018-12-04T22:13:09.560Z,2.80
2018-12-04T22:15:38.968Z,3.00
2018-12-04T22:18:08.252Z,2.60
2018-12-04T22:20:37.706Z,2.90
2018-12-04T22:23:06.908Z,2.23
2018-12-04T22:25:36.397Z,2.57
2018-12-04T22:28:06.066Z,2.70
2018-12-04T22:30:35.330Z,2.63
2018-12-04T22:33:04.568Z,3.57
2018-12-04T22:35:33.923Z,3.20
2018-12-04T22:38:03.418Z,3.03
2018-12-04T22:40:32.832Z,3.23
2018-12-04T22:43:02.022Z,2.77
2018-12-04T22:45:31.299Z,2.70
2018-12-04T22:48:00.890Z,3.13
2018-12-04T22:50:30.588Z,3.03
2018-12-04T22:52:59.733Z,3.00
2018-12-04T22:55:29.021Z,2.37
2018-12-04T22:57:58.238Z,2.83
2018-12-04T23:00:39.036Z,3.07
2018-12-04T23:03:08.266Z,3.17
2018-12-04T23:05:37.662Z,2.77
2018-12-04T23:08:07.071Z,2.70
2018-12-04T23:10:36.273Z,2.63
2018-12-04T23:13:05.893Z,3.00
2018-12-04T23:15:35.114Z,3.10
2018-12-04T23:18:04.401Z,3.17
2018-12-04T23:20:33.877Z,2.87
2018-12-04T23:23:03.082Z,3.77
2018-12-04T23:25:32.257Z,2.53
2018-12-04T23:28:01.466Z,3.37
2018-12-04T23:30:30.901Z,3.60
2018-12-04T23:33:00.382Z,3.10
2018-12-04T23:35:29.554Z,2.73
2018-12-04T23:37:58.727Z,2.53
2018-12-04T23:40:27.933Z,3.30
2018-12-04T23:42:57.137Z,2.63
2018-12-04T23:45:26.370Z,2.67
2018-12-04T23:47:55.611Z,2.77
2018-12-04T23:50:24.809Z,2.43
2018-12-04T23:52:54.317Z,2.77
2018-12-04T23:55:23.638Z,2.80
2018-12-04T23:57:53.258Z,3.60
